createdAt,value
2019-03-15T00:00:28.112Z,99771.61
2019-03-15T00:02:59.567Z,99784.52
2019-03-15T00:05:31.614Z,99781.56
2019-03-15T00:08:03.236Z,99781.56
2019-03-15T00:10:35.030Z,99783.61
2019-03-15T00:13:06.487Z,99792.92
2019-03-15T00:15:38.270Z,99795.54
2019-03-15T00:18:09.760Z,99795.54
2019-03-15T00:20:41.578Z,99801.52
2019-03-15T00:23:13.372Z,99806.39
2019-03-15T00:25:45.111Z,99806.39
2019-03-15T00:28:17.978Z,99811.19
2019-03-15T00:30:49.730Z,99814.75
2019-03-15T00:33:21.514Z,99818.16
2019-03-15T00:35:53.180Z,99818.16
2019-03-15T00:38:25.027Z,99821.59
2019-03-15T00:40:56.901Z,99821.59
2019-03-15T00:43:28.602Z,99832.59
2019-03-15T00:46:00.108Z,99832.59
2019-03-15T00:48:31.970Z,99841.68
2019-03-15T00:51:03.699Z,99841.68
2019-03-15T00:53:35.404Z,99846.70
2019-03-15T00:56:07.119Z,99849.59
2019-03-15T00:58:38.860Z,99867.55
2019-03-15T01:01:10.594Z,99867.55
2019-03-15T01:03:42.323Z,99869.38
2019-03-15T01:06:14.064Z,99869.38
2019-03-15T01:08:45.555Z,99877.16
2019-03-15T01:11:17.128Z,99881.02
2019-03-15T01:13:49.084Z,99886.50
2019-03-15T01:16:20.485Z,99896.80
2019-03-15T01:18:52.389Z,99896.80
2019-03-15T01:21:23.979Z,99896.72
2019-03-15T01:23:55.776Z,99896.72
2019-03-15T01:26:27.237Z,99909.33
2019-03-15T01:28:59.122Z,99909.33
2019-03-15T01:31:30.541Z,99906.29
2019-03-15T01:34:02.164Z,99908.33
2019-03-15T01:36:33.742Z,99908.33
2019-03-15T01:39:05.940Z,99915.20
2019-03-15T01:41:37.262Z,99915.20
2019-03-15T01:44:08.700Z,99922.92
2019-03-15T01:46:40.830Z,99922.92
2019-03-15T01:49:12.383Z,99921.30
2019-03-15T01:51:44.038Z,99932.28
2019-03-15T01:54:16.749Z,99934.60
2019-03-15T01:56:48.268Z,99934.60
2019-03-15T01:59:20.056Z,99948.42
2019-03-15T02:01:51.628Z,99948.42
2019-03-15T02:04:23.419Z,99954.73
2019-03-15T02:06:55.121Z,99961.17
2019-03-15T02:09:26.596Z,99971.44
2019-03-15T02:11:58.560Z,99970.39
2019-03-15T02:14:29.826Z,99978.50
2019-03-15T02:17:01.177Z,99978.50
2019-03-15T02:19:32.607Z,99988.00
2019-03-15T02:22:04.283Z,99990.16
2019-03-15T02:24:36.263Z,100002.44
2019-03-15T02:27:08.175Z,99996.41
2019-03-15T02:29:39.884Z,100004.86
2019-03-15T02:32:12.859Z,100004.86
2019-03-15T02:34:44.688Z,100016.86
2019-03-15T02:37:19.985Z,100019.09
2019-03-15T02:39:51.885Z,100023.25
2019-03-15T02:42:23.763Z,100019.29
2019-03-15T02:44:56.177Z,100019.29
2019-03-15T02:47:28.018Z,100032.94
2019-03-15T02:50:00.638Z,100044.72
2019-03-15T02:52:32.830Z,100041.35
2019-03-15T02:55:04.565Z,100050.08
2019-03-15T02:57:37.290Z,100044.47
2019-03-15T03:00:09.314Z,100044.47
2019-03-15T03:02:41.151Z,100051.85
2019-03-15T03:05:13.035Z,100059.59
2019-03-15T03:07:44.742Z,100059.91
2019-03-15T03:10:16.618Z,100062.81
2019-03-15T03:12:49.065Z,100057.64
2019-03-15T03:15:20.933Z,100073.25
2019-03-15T03:17:52.676Z,100073.25
2019-03-15T03:20:24.437Z,100085.73
2019-03-15T03:22:55.940Z,100089.77
2019-03-15T03:25:27.504Z,100089.28
2019-03-15T03:27:59.540Z,100092.30
2019-03-15T03:30:32.601Z,100092.30
2019-03-15T03:33:04.293Z,100096.88
2019-03-15T03:35:36.128Z,100101.59
2019-03-15T03:38:07.912Z,100103.64
2019-03-15T03:40:39.433Z,100103.64
2019-03-15T03:43:11.380Z,100105.67
2019-03-15T03:45:43.062Z,100116.03
2019-03-15T03:48:15.818Z,100116.03
2019-03-15T03:50:48.146Z,100109.91
2019-03-15T03:53:19.783Z,100112.89
2019-03-15T03:55:51.714Z,100112.75
2019-03-15T03:58:23.916Z,100113.02
2019-03-15T04:00:55.337Z,100117.34
2019-03-15T04:03:27.400Z,100117.34
2019-03-15T04:05:59.343Z,100117.28
2019-03-15T04:08:30.755Z,100117.28
2019-03-15T04:11:02.385Z,100125.34
2019-03-15T04:13:34.307Z,100120.16
2019-03-15T04:16:06.091Z,100114.87
2019-03-15T04:18:37.909Z,100115.72
2019-03-15T04:21:09.462Z,100118.63
2019-03-15T04:23:41.371Z,100118.27
2019-03-15T04:26:12.947Z,100118.27
2019-03-15T04:28:44.690Z,100117.91
2019-03-15T04:31:16.172Z,100115.69
2019-03-15T04:33:47.806Z,100115.69
2019-03-15T04:36:19.530Z,100122.00
2019-03-15T04:38:51.529Z,100123.64
2019-03-15T04:41:23.302Z,100120.25
2019-03-15T04:43:55.114Z,100117.66
2019-03-15T04:46:27.084Z,100119.65
2019-03-15T04:48:58.397Z,100119.65
2019-03-15T04:51:29.810Z,100121.81
2019-03-15T04:54:01.675Z,100117.33
2019-03-15T04:56:33.493Z,100121.51
2019-03-15T04:59:05.358Z,100121.51
2019-03-15T05:01:37.550Z,100126.84
2019-03-15T05:04:09.274Z,100116.80
2019-03-15T05:06:41.365Z,100122.05
2019-03-15T05:09:13.204Z,100119.80
2019-03-15T05:11:45.063Z,100117.81
2019-03-15T05:14:17.032Z,100121.52
2019-03-15T05:16:49.529Z,100114.63
2019-03-15T05:19:22.168Z,100118.93
2019-03-15T05:21:54.004Z,100117.73
2019-03-15T05:24:25.654Z,100112.47
2019-03-15T05:26:57.144Z,100112.55
2019-03-15T05:29:28.993Z,100118.54
2019-03-15T05:32:00.757Z,100103.52
2019-03-15T05:34:33.381Z,100113.62
2019-03-15T05:37:04.995Z,100110.18
2019-03-15T05:39:37.088Z,100106.16
2019-03-15T05:42:09.255Z,100102.84
2019-03-15T05:44:41.591Z,100102.84
2019-03-15T05:47:13.672Z,100097.23
2019-03-15T05:49:45.197Z,100100.70
2019-03-15T05:52:17.140Z,100093.02
2019-03-15T05:54:48.878Z,100087.45
2019-03-15T05:57:20.727Z,100087.45
2019-03-15T05:59:53.020Z,100087.78
2019-03-15T06:02:25.231Z,100085.08
2019-03-15T06:04:57.926Z,100078.70
2019-03-15T06:07:29.951Z,100072.11
2019-03-15T06:10:01.859Z,100071.83
2019-03-15T06:12:33.593Z,100071.83
2019-03-15T06:15:05.920Z,100068.91
2019-03-15T06:17:38.165Z,100062.06
2019-03-15T06:20:10.700Z,100065.50
2019-03-15T06:22:42.664Z,100062.88
2019-03-15T06:25:15.232Z,100067.72
2019-03-15T06:27:47.537Z,100057.05
2019-03-15T06:30:19.821Z,100063.16
2019-03-15T06:32:51.764Z,100057.80
2019-03-15T06:35:24.031Z,100050.41
2019-03-15T06:37:56.119Z,100045.43
2019-03-15T06:40:28.130Z,100038.67
2019-03-15T06:43:00.756Z,100026.91
2019-03-15T06:45:32.582Z,100032.27
2019-03-15T06:48:05.188Z,100032.27
2019-03-15T06:50:39.882Z,100030.87
2019-03-15T06:53:13.988Z,100023.92
2019-03-15T06:55:47.358Z,100023.92
2019-03-15T06:58:20.415Z,100026.55
2019-03-15T07:00:54.914Z,100019.31
2019-03-15T07:03:28.683Z,100014.45
2019-03-15T07:06:03.135Z,100014.45
2019-03-15T07:08:37.638Z,100009.31
2019-03-15T07:11:12.773Z,100009.55
2019-03-15T07:13:48.705Z,100006.86
2019-03-15T07:16:23.986Z,99999.53
2019-03-15T07:18:58.923Z,100000.45
2019-03-15T07:21:36.803Z,99989.86
2019-03-15T07:24:24.193Z,99989.86
2019-03-15T07:26:51.610Z,99988.05
2019-03-15T07:29:26.649Z,99983.55
2019-03-15T07:32:02.336Z,99981.56
2019-03-15T07:34:36.795Z,99968.28
2019-03-15T07:37:11.541Z,99968.28
2019-03-15T07:39:46.682Z,99967.90
2019-03-15T07:42:18.946Z,99951.73
2019-03-15T07:44:51.259Z,99951.73
2019-03-15T07:47:23.302Z,99948.90
2019-03-15T07:49:55.727Z,99932.50
2019-03-15T07:52:28.555Z,99922.17
2019-03-15T07:55:00.715Z,99922.17
2019-03-15T07:57:32.713Z,99929.56
2019-03-15T08:00:04.813Z,99918.11
2019-03-15T08:02:36.428Z,99915.23
2019-03-15T08:05:09.192Z,99911.33
2019-03-15T08:07:45.153Z,99903.27
2019-03-15T08:10:15.701Z,99897.80
2019-03-15T08:12:49.725Z,99897.80
2019-03-15T08:15:24.501Z,99890.73
2019-03-15T08:17:59.375Z,99883.71
2019-03-15T08:20:35.722Z,99882.72
2019-03-15T08:23:11.356Z,99878.49
2019-03-15T08:25:46.286Z,99871.87
2019-03-15T08:28:22.138Z,99867.77
2019-03-15T08:30:57.215Z,99867.77
2019-03-15T08:33:32.245Z,99855.63
2019-03-15T08:36:09.552Z,99855.63
2019-03-15T08:38:47.893Z,99855.62
2019-03-15T08:41:20.783Z,99846.20
2019-03-15T08:43:55.393Z,99841.15
2019-03-15T08:46:29.642Z,99830.91
2019-03-15T08:49:06.249Z,99828.75
2019-03-15T08:51:42.577Z,99828.75
2019-03-15T08:54:17.328Z,99826.19
2019-03-15T08:56:52.609Z,99824.66
2019-03-15T08:59:28.730Z,99818.84
2019-03-15T09:02:04.067Z,99818.84
2019-03-15T09:04:38.836Z,99805.43
2019-03-15T09:07:13.547Z,99803.92
2019-03-15T09:09:50.559Z,99801.67
2019-03-15T09:12:29.126Z,99800.35
2019-03-15T09:15:04.510Z,99786.91
2019-03-15T09:17:41.412Z,99779.48
2019-03-15T09:20:16.822Z,99779.48
2019-03-15T09:22:54.905Z,99777.55
2019-03-15T09:25:29.527Z,99777.55
2019-03-15T09:28:05.767Z,99774.94
2019-03-15T09:30:40.289Z,99769.94
2019-03-15T09:33:15.112Z,99768.25
2019-03-15T09:35:50.981Z,99758.83
2019-03-15T09:38:26.300Z,99758.83
2019-03-15T09:41:03.415Z,99756.80
2019-03-15T09:43:45.240Z,99756.80
2019-03-15T09:46:21.004Z,99750.92
2019-03-15T09:48:59.800Z,99750.92
2019-03-15T09:51:39.266Z,99743.08
2019-03-15T09:54:15.770Z,99737.46
2019-03-15T09:56:57.800Z,99737.46
2019-03-15T09:59:32.397Z,99732.41
2019-03-15T10:02:08.435Z,99730.92
2019-03-15T10:04:42.812Z,99730.92
2019-03-15T10:07:19.081Z,99727.87
2019-03-15T10:09:56.083Z,99724.42
2019-03-15T10:12:31.192Z,99725.53
2019-03-15T10:15:08.132Z,99728.63
2019-03-15T10:17:47.145Z,99725.49
2019-03-15T10:20:21.811Z,99727.52
2019-03-15T10:23:06.126Z,99727.52
2019-03-15T10:25:46.041Z,99721.77
2019-03-15T10:28:11.854Z,99715.72
2019-03-15T10:30:49.384Z,99704.57
2019-03-15T10:33:30.491Z,99704.57
2019-03-15T10:36:05.733Z,99701.48
2019-03-15T10:38:43.966Z,99696.28
2019-03-15T10:41:18.763Z,99702.19
2019-03-15T10:43:55.176Z,99704.20
2019-03-15T10:46:29.739Z,99695.78
2019-03-15T10:49:04.571Z,99695.78
2019-03-15T10:51:39.052Z,99694.66
2019-03-15T10:54:16.320Z,99690.44
2019-03-15T10:56:51.453Z,99690.33
2019-03-15T10:59:26.350Z,99691.06
2019-03-15T11:02:01.321Z,99691.06
2019-03-15T11:04:35.630Z,99690.63
2019-03-15T11:07:09.765Z,99689.55
2019-03-15T11:09:42.953Z,99689.55
2019-03-15T11:12:15.110Z,99677.71
2019-03-15T11:14:47.060Z,99679.25
2019-03-15T11:17:18.634Z,99679.25
2019-03-15T11:19:50.624Z,99686.95
2019-03-15T11:22:22.386Z,99677.45
2019-03-15T11:24:54.332Z,99679.48
2019-03-15T11:27:26.574Z,99679.48
2019-03-15T11:29:58.685Z,99671.11
2019-03-15T11:32:30.684Z,99671.20
2019-03-15T11:35:02.705Z,99673.97
2019-03-15T11:37:34.514Z,99671.42
2019-03-15T11:40:07.198Z,99671.42
2019-03-15T11:42:39.461Z,99673.09
2019-03-15T11:45:13.649Z,99673.09
2019-03-15T11:48:02.495Z,99674.97
2019-03-15T11:50:24.705Z,99673.55
2019-03-15T11:52:58.331Z,99678.16
2019-03-15T11:55:32.200Z,99678.16
2019-03-15T11:58:05.517Z,99678.59
2019-03-15T12:00:38.818Z,99680.83
2019-03-15T12:03:11.752Z,99677.80
2019-03-15T12:05:43.742Z,99679.48
2019-03-15T12:08:15.399Z,99670.48
2019-03-15T12:10:47.078Z,99673.80
2019-03-15T12:13:18.909Z,99673.80
2019-03-15T12:15:50.596Z,99669.82
2019-03-15T12:18:22.381Z,99669.82
2019-03-15T12:20:54.176Z,99662.11
2019-03-15T12:23:26.081Z,99652.13
2019-03-15T12:25:57.725Z,99655.95
2019-03-15T12:28:29.533Z,99661.81
2019-03-15T12:31:01.289Z,99662.66
2019-03-15T12:33:33.106Z,99667.45
2019-03-15T12:36:05.071Z,99667.45
2019-03-15T12:38:36.892Z,99666.48
2019-03-15T12:41:08.639Z,99666.37
2019-03-15T12:43:40.254Z,99666.37
2019-03-15T12:46:12.012Z,99670.44
2019-03-15T12:48:43.889Z,99676.02
2019-03-15T12:51:15.835Z,99679.84
2019-03-15T12:53:47.622Z,99681.20
2019-03-15T12:56:19.230Z,99679.94
2019-03-15T12:58:51.399Z,99679.94
2019-03-15T13:01:22.978Z,99681.36
2019-03-15T13:03:54.560Z,99684.78
2019-03-15T13:06:26.234Z,99685.62
2019-03-15T13:08:58.133Z,99683.46
2019-03-15T13:11:30.138Z,99678.05
2019-03-15T13:14:03.858Z,99684.09
2019-03-15T13:16:35.531Z,99684.09
2019-03-15T13:19:07.133Z,99685.22
2019-03-15T13:21:38.854Z,99687.20
2019-03-15T13:24:10.646Z,99691.22
2019-03-15T13:26:42.229Z,99697.52
2019-03-15T13:29:14.428Z,99691.59
2019-03-15T13:31:45.936Z,99703.14
2019-03-15T13:34:18.115Z,99701.95
2019-03-15T13:36:50.243Z,99701.95
2019-03-15T13:39:22.111Z,99700.46
2019-03-15T13:41:54.436Z,99701.03
2019-03-15T13:44:26.424Z,99712.56
2019-03-15T13:46:58.131Z,99712.56
2019-03-15T13:49:29.860Z,99715.02
2019-03-15T13:52:01.610Z,99717.88
2019-03-15T13:54:33.034Z,99720.72
2019-03-15T13:57:04.729Z,99716.95
2019-03-15T13:59:36.891Z,99716.95
2019-03-15T14:02:11.704Z,99728.81
2019-03-15T14:04:43.523Z,99730.03
2019-03-15T14:07:15.270Z,99730.03
2019-03-15T14:09:47.114Z,99731.26
2019-03-15T14:12:19.130Z,99733.41
2019-03-15T14:14:51.418Z,99738.93
2019-03-15T14:17:23.127Z,99738.93
2019-03-15T14:19:54.762Z,99749.42
2019-03-15T14:22:26.172Z,99749.42
2019-03-15T14:24:57.739Z,99756.11
2019-03-15T14:27:37.502Z,99756.11
2019-03-15T14:30:04.263Z,99760.82
2019-03-15T14:32:35.717Z,99766.22
2019-03-15T14:35:07.614Z,99766.22
2019-03-15T14:37:39.218Z,99771.42
2019-03-15T14:40:10.809Z,99768.47
2019-03-15T14:42:42.547Z,99776.41
2019-03-15T14:45:14.303Z,99773.40
2019-03-15T14:47:46.124Z,99773.40
2019-03-15T14:50:18.098Z,99787.14
2019-03-15T14:52:49.697Z,99787.80
2019-03-15T14:55:21.590Z,99782.86
2019-03-15T14:57:53.730Z,99791.66
2019-03-15T15:00:25.512Z,99791.66
2019-03-15T15:02:57.406Z,99798.55
2019-03-15T15:05:29.132Z,99800.81
2019-03-15T15:08:00.935Z,99805.05
2019-03-15T15:10:32.976Z,99807.28
2019-03-15T15:13:04.687Z,99807.28
2019-03-15T15:15:36.653Z,99813.48
2019-03-15T15:18:08.063Z,99815.51
2019-03-15T15:20:39.862Z,99821.22
2019-03-15T15:23:11.455Z,99826.78
2019-03-15T15:25:43.498Z,99829.50
2019-03-15T15:28:14.977Z,99836.94
2019-03-15T15:30:46.766Z,99835.19
2019-03-15T15:33:19.155Z,99831.31
2019-03-15T15:35:50.829Z,99831.31
2019-03-15T15:38:22.436Z,99830.47
2019-03-15T15:40:54.487Z,99834.03
2019-03-15T15:43:27.145Z,99839.45
2019-03-15T15:45:58.904Z,99838.98
2019-03-15T15:48:30.350Z,99845.73
2019-03-15T15:51:02.136Z,99841.79
2019-03-15T15:53:33.583Z,99843.86
2019-03-15T15:56:05.634Z,99844.26
2019-03-15T15:58:37.038Z,99844.24
2019-03-15T16:01:08.971Z,99844.24
2019-03-15T16:03:41.142Z,99855.83
2019-03-15T16:06:12.576Z,99855.83
2019-03-15T16:08:43.747Z,99859.47
2019-03-15T16:11:15.755Z,99859.47
2019-03-15T16:13:47.388Z,99870.76
2019-03-15T16:16:19.240Z,99870.00
2019-03-15T16:18:50.888Z,99870.00
2019-03-15T16:21:22.791Z,99869.55
2019-03-15T16:23:55.024Z,99875.48
2019-03-15T16:26:29.046Z,99881.69
2019-03-15T16:29:00.514Z,99886.41
2019-03-15T16:31:32.297Z,99877.55
2019-03-15T16:34:04.610Z,99881.78
2019-03-15T16:36:36.278Z,99888.25
2019-03-15T16:39:09.740Z,99888.25
2019-03-15T16:41:41.266Z,99890.36
2019-03-15T16:44:13.012Z,99899.88
2019-03-15T16:46:44.368Z,99890.12
2019-03-15T16:49:16.225Z,99889.63
2019-03-15T16:51:47.482Z,99889.63
2019-03-15T16:54:20.121Z,99891.50
2019-03-15T16:56:51.851Z,99891.59
2019-03-15T16:59:24.679Z,99889.73
2019-03-15T17:01:56.158Z,99889.73
2019-03-15T17:04:30.532Z,99894.80
2019-03-15T17:07:01.949Z,99889.33
2019-03-15T17:09:33.546Z,99889.33
2019-03-15T17:12:05.061Z,99894.80
2019-03-15T17:14:36.828Z,99900.06
2019-03-15T17:17:09.067Z,99897.44
2019-03-15T17:19:41.026Z,99894.41
2019-03-15T17:22:13.837Z,99894.13
2019-03-15T17:24:45.365Z,99894.13
2019-03-15T17:27:17.027Z,99892.73
2019-03-15T17:29:49.540Z,99890.94
2019-03-15T17:32:21.048Z,99892.60
2019-03-15T17:34:52.866Z,99890.69
2019-03-15T17:37:24.478Z,99890.69
2019-03-15T17:39:56.043Z,99889.20
2019-03-15T17:42:27.452Z,99889.20
2019-03-15T17:44:58.753Z,99886.86
2019-03-15T17:47:30.134Z,99890.78
2019-03-15T17:50:01.788Z,99881.59
2019-03-15T17:52:33.353Z,99881.40
2019-03-15T17:55:04.859Z,99881.40
2019-03-15T17:57:36.841Z,99885.77
2019-03-15T18:00:19.614Z,99885.77
2019-03-15T18:02:51.268Z,99891.88
2019-03-15T18:05:22.972Z,99895.46
2019-03-15T18:07:55.040Z,99884.94
2019-03-15T18:10:27.017Z,99882.62
2019-03-15T18:12:58.685Z,99884.41
2019-03-15T18:15:30.702Z,99884.41
2019-03-15T18:18:02.208Z,99879.50
2019-03-15T18:20:33.711Z,99873.80
2019-03-15T18:23:05.460Z,99875.53
2019-03-15T18:25:37.072Z,99875.53
2019-03-15T18:28:08.746Z,99882.62
2019-03-15T18:30:40.243Z,99884.44
2019-03-15T18:33:12.002Z,99880.30
2019-03-15T18:35:43.546Z,99880.30
2019-03-15T18:38:15.205Z,99878.39
2019-03-15T18:40:46.983Z,99878.39
2019-03-15T18:43:18.728Z,99875.81
2019-03-15T18:45:50.240Z,99872.97
2019-03-15T18:48:22.057Z,99869.79
2019-03-15T18:50:53.917Z,99869.59
2019-03-15T18:53:25.639Z,99873.17
2019-03-15T18:55:57.143Z,99872.88
2019-03-15T18:58:29.068Z,99864.28
2019-03-15T19:01:00.472Z,99864.28
2019-03-15T19:03:31.880Z,99859.73
2019-03-15T19:06:03.273Z,99853.33
2019-03-15T19:08:34.393Z,99853.33
2019-03-15T19:11:06.466Z,99849.70
2019-03-15T19:13:39.141Z,99842.05
2019-03-15T19:16:20.004Z,99839.34
2019-03-15T19:18:44.199Z,99839.34
2019-03-15T19:21:15.799Z,99833.75
2019-03-15T19:23:47.529Z,99830.54
2019-03-15T19:26:19.363Z,99830.54
2019-03-15T19:28:50.670Z,99837.14
2019-03-15T19:31:22.041Z,99836.91
2019-03-15T19:33:53.278Z,99834.83
2019-03-15T19:36:24.707Z,99830.16
2019-03-15T19:38:56.306Z,99830.16
2019-03-15T19:41:28.126Z,99828.34
2019-03-15T19:43:59.517Z,99828.34
2019-03-15T19:46:31.265Z,99822.09
2019-03-15T19:49:02.830Z,99821.34
2019-03-15T19:51:34.583Z,99815.79
2019-03-15T19:54:06.365Z,99807.88
2019-03-15T19:56:38.130Z,99812.63
2019-03-15T19:59:09.768Z,99812.63
2019-03-15T20:01:41.388Z,99807.06
2019-03-15T20:04:13.098Z,99807.06
2019-03-15T20:06:44.568Z,99805.25
2019-03-15T20:09:16.341Z,99805.25
2019-03-15T20:11:48.345Z,99804.44
2019-03-15T20:14:20.088Z,99793.41
2019-03-15T20:16:51.669Z,99786.76
2019-03-15T20:19:23.375Z,99786.76
2019-03-15T20:21:55.018Z,99793.75
2019-03-15T20:24:26.456Z,99795.41
2019-03-15T20:26:57.851Z,99796.80
2019-03-15T20:29:30.066Z,99790.54
2019-03-15T20:32:01.267Z,99793.16
2019-03-15T20:34:32.609Z,99793.89
2019-03-15T20:37:04.140Z,99794.47
2019-03-15T20:39:35.989Z,99788.98
2019-03-15T20:42:07.433Z,99786.63
2019-03-15T20:44:39.147Z,99786.88
2019-03-15T20:47:11.981Z,99786.88
2019-03-15T20:49:43.465Z,99787.44
2019-03-15T20:52:14.725Z,99790.33
2019-03-15T20:54:46.175Z,99784.44
2019-03-15T20:57:17.550Z,99774.86
2019-03-15T20:59:48.896Z,99778.98
2019-03-15T21:02:20.320Z,99780.55
2019-03-15T21:04:51.658Z,99781.71
2019-03-15T21:07:22.933Z,99777.11
2019-03-15T21:09:54.147Z,99781.38
2019-03-15T21:12:25.463Z,99781.53
2019-03-15T21:14:57.023Z,99781.53
2019-03-15T21:17:28.533Z,99781.61
2019-03-15T21:20:00.344Z,99779.19
2019-03-15T21:22:31.698Z,99771.16
2019-03-15T21:25:03.147Z,99780.28
2019-03-15T21:27:34.419Z,99782.91
2019-03-15T21:30:06.665Z,99778.50
2019-03-15T21:32:38.400Z,99785.33
2019-03-15T21:35:10.213Z,99785.80
2019-03-15T21:37:41.633Z,99785.80
2019-03-15T21:40:13.550Z,99784.38
2019-03-15T21:42:44.914Z,99776.61
2019-03-15T21:45:16.723Z,99776.61
2019-03-15T21:47:48.005Z,99763.88
2019-03-15T21:50:19.963Z,99763.88
2019-03-15T21:52:51.434Z,99758.06
2019-03-15T21:55:22.696Z,99758.06
2019-03-15T21:57:54.293Z,99752.16
2019-03-15T22:00:25.764Z,99752.16
2019-03-15T22:02:57.218Z,99753.59
2019-03-15T22:05:29.142Z,99739.66
2019-03-15T22:08:00.452Z,99740.38
2019-03-15T22:10:31.982Z,99740.38
2019-03-15T22:13:03.336Z,99744.84
2019-03-15T22:15:34.816Z,99749.94
2019-03-15T22:18:06.303Z,99741.94
2019-03-15T22:20:38.746Z,99741.94
2019-03-15T22:23:09.900Z,99746.42
2019-03-15T22:25:41.322Z,99746.42
2019-03-15T22:28:12.941Z,99752.89
2019-03-15T22:30:44.352Z,99748.66
2019-03-15T22:33:15.901Z,99745.28
2019-03-15T22:35:47.800Z,99753.83
2019-03-15T22:38:26.239Z,99753.83
2019-03-15T22:40:52.638Z,99760.38
2019-03-15T22:43:24.600Z,99752.52
2019-03-15T22:45:55.806Z,99748.45
2019-03-15T22:48:27.479Z,99744.91
2019-03-15T22:50:58.737Z,99743.61
2019-03-15T22:53:30.445Z,99743.61
2019-03-15T22:56:02.012Z,99741.23
2019-03-15T22:58:34.389Z,99741.23
2019-03-15T23:01:06.729Z,99752.17
2019-03-15T23:03:40.334Z,99746.30
2019-03-15T23:06:12.750Z,99746.30
2019-03-15T23:08:44.059Z,99749.94
2019-03-15T23:11:15.465Z,99758.19
2019-03-15T23:13:46.711Z,99758.19
2019-03-15T23:16:18.443Z,99760.35
2019-03-15T23:18:49.803Z,99760.35
2019-03-15T23:21:21.402Z,99760.35
2019-03-15T23:23:52.726Z,99768.60
2019-03-15T23:26:24.096Z,99773.98
2019-03-15T23:28:55.540Z,99766.83
2019-03-15T23:31:26.886Z,99765.72
2019-03-15T23:33:58.395Z,99768.70
2019-03-15T23:36:29.632Z,99768.70
2019-03-15T23:39:01.380Z,99772.10
2019-03-15T23:41:33.555Z,99773.88
2019-03-15T23:44:05.071Z,99773.88
2019-03-15T23:46:36.455Z,99773.65
2019-03-15T23:49:09.088Z,99780.01
2019-03-15T23:51:40.357Z,99780.01
2019-03-15T23:54:11.733Z,99784.00
2019-03-15T23:56:43.126Z,99792.62
2019-03-15T23:59:14.780Z,99784.92
